createdAt,value
2022-08-25T00:00:58.482Z,100434.42
2022-08-25T00:03:30.593Z,100434.23
2022-08-25T00:06:11.576Z,100432.23
2022-08-25T00:08:44.470Z,100425.77
2022-08-25T00:11:19.608Z,100421.36
2022-08-25T00:13:55.284Z,100417.94
2022-08-25T00:16:30.143Z,100414.25
2022-08-25T00:19:07.213Z,100412.80
2022-08-25T00:21:41.199Z,100412.09
2022-08-25T00:24:14.852Z,100408.66
2022-08-25T00:26:50.122Z,100401.17
2022-08-25T00:29:23.107Z,100399.19
2022-08-25T00:31:56.570Z,100400.09
2022-08-25T00:34:34.342Z,100395.63
2022-08-25T00:37:09.306Z,100391.61
2022-08-25T00:39:41.755Z,100393.71
2022-08-25T00:42:15.054Z,100392.30
2022-08-25T00:44:48.515Z,100390.67
2022-08-25T00:47:21.513Z,100387.98
2022-08-25T00:49:59.016Z,100390.61
2022-08-25T00:52:33.853Z,100390.32
2022-08-25T00:55:10.458Z,100393.95
2022-08-25T00:57:45.744Z,100396.92
2022-08-25T01:00:22.997Z,100390.70
2022-08-25T01:02:58.060Z,100384.78
2022-08-25T01:05:34.089Z,100383.05
2022-08-25T01:08:08.844Z,100383.47
2022-08-25T01:10:45.295Z,100385.47
2022-08-25T01:13:21.968Z,100382.80
2022-08-25T01:15:57.491Z,100390.23
2022-08-25T01:18:30.587Z,100388.77
2022-08-25T01:21:02.900Z,100391.15
2022-08-25T01:23:34.962Z,100385.74
2022-08-25T01:26:12.075Z,100383.53
2022-08-25T01:29:01.375Z,100388.67
2022-08-25T01:31:35.067Z,100379.59
2022-08-25T01:34:08.080Z,100379.11
2022-08-25T01:36:40.799Z,100385.38
2022-08-25T01:39:13.413Z,100383.96
2022-08-25T01:41:59.759Z,100380.10
2022-08-25T01:44:32.113Z,100375.92
2022-08-25T01:47:06.158Z,100376.11
2022-08-25T01:49:38.790Z,100379.51
2022-08-25T01:52:17.022Z,100379.66
2022-08-25T01:54:49.090Z,100377.66
2022-08-25T01:57:22.147Z,100380.86
2022-08-25T01:59:54.229Z,100373.78
2022-08-25T02:02:26.491Z,100372.58
2022-08-25T02:04:58.859Z,100372.64
2022-08-25T02:07:32.016Z,100372.70
2022-08-25T02:10:05.026Z,100373.77
2022-08-25T02:12:37.683Z,100369.46
2022-08-25T02:15:11.832Z,100368.60
2022-08-25T02:17:43.980Z,100364.09
2022-08-25T02:20:16.087Z,100365.08
2022-08-25T02:22:55.384Z,100361.74
2022-08-25T02:25:30.003Z,100365.34
2022-08-25T02:28:02.682Z,100363.10
2022-08-25T02:30:36.169Z,100361.84
2022-08-25T02:33:08.996Z,100362.80
2022-08-25T02:35:41.609Z,100362.15
2022-08-25T02:38:13.718Z,100362.05
2022-08-25T02:40:45.902Z,100365.14
2022-08-25T02:43:18.007Z,100364.10
2022-08-25T02:45:50.189Z,100363.81
2022-08-25T02:48:23.493Z,100360.96
2022-08-25T02:50:55.843Z,100358.44
2022-08-25T02:53:28.655Z,100361.91
2022-08-25T02:56:01.253Z,100362.39
2022-08-25T02:58:33.397Z,100363.07
2022-08-25T03:01:05.783Z,100363.10
2022-08-25T03:03:39.527Z,100365.27
2022-08-25T03:06:13.531Z,100360.73
2022-08-25T03:08:46.453Z,100366.72
2022-08-25T03:11:19.565Z,100364.72
2022-08-25T03:13:52.175Z,100373.86
2022-08-25T03:16:27.627Z,100373.77
2022-08-25T03:19:00.774Z,100371.89
2022-08-25T03:21:33.527Z,100364.48
2022-08-25T03:24:06.418Z,100360.04
2022-08-25T03:26:56.760Z,100361.33
2022-08-25T03:29:32.750Z,100359.42
2022-08-25T03:32:05.401Z,100354.13
2022-08-25T03:34:37.622Z,100355.09
2022-08-25T03:37:10.018Z,100354.90
2022-08-25T03:39:42.727Z,100354.73
2022-08-25T03:42:14.777Z,100356.48
2022-08-25T03:44:46.816Z,100358.88
2022-08-25T03:47:19.099Z,100362.86
2022-08-25T03:49:51.780Z,100364.94
2022-08-25T03:52:24.006Z,100360.52
2022-08-25T03:54:56.252Z,100359.47
2022-08-25T03:57:28.345Z,100357.32
2022-08-25T04:00:00.432Z,100356.23
2022-08-25T04:02:33.846Z,100353.45
2022-08-25T04:05:06.878Z,100356.01
2022-08-25T04:07:39.459Z,100355.16
2022-08-25T04:10:12.768Z,100358.35
2022-08-25T04:12:45.429Z,100357.44
2022-08-25T04:15:17.522Z,100360.42
2022-08-25T04:17:51.832Z,100355.33
2022-08-25T04:20:24.109Z,100354.75
2022-08-25T04:23:00.633Z,100353.55
2022-08-25T04:25:33.360Z,100350.08
2022-08-25T04:28:06.001Z,100351.13
2022-08-25T04:30:42.773Z,100353.92
2022-08-25T04:33:14.885Z,100352.79
2022-08-25T04:35:51.326Z,100355.89
2022-08-25T04:38:24.161Z,100362.40
2022-08-25T04:41:00.172Z,100358.81
2022-08-25T04:43:33.261Z,100354.92
2022-08-25T04:46:09.451Z,100352.34
2022-08-25T04:48:42.376Z,100353.89
2022-08-25T04:51:16.284Z,100351.91
2022-08-25T04:53:48.565Z,100352.55
2022-08-25T04:56:23.106Z,100349.95
2022-08-25T04:58:56.080Z,100347.91
2022-08-25T05:01:28.927Z,100339.48
2022-08-25T05:04:03.566Z,100341.17
2022-08-25T05:06:36.059Z,100339.33
2022-08-25T05:09:08.684Z,100339.13
2022-08-25T05:11:42.193Z,100337.01
2022-08-25T05:14:18.225Z,100340.44
2022-08-25T05:16:51.987Z,100337.13
2022-08-25T05:19:24.744Z,100337.32
2022-08-25T05:21:57.924Z,100340.31
2022-08-25T05:24:30.934Z,100338.67
2022-08-25T05:27:04.150Z,100342.45
2022-08-25T05:29:36.209Z,100340.68
2022-08-25T05:32:10.215Z,100338.38
2022-08-25T05:34:42.409Z,100339.20
2022-08-25T05:37:14.546Z,100334.86
2022-08-25T05:39:46.631Z,100330.45
2022-08-25T05:42:18.624Z,100329.27
2022-08-25T05:44:51.136Z,100325.11
2022-08-25T05:47:23.154Z,100328.17
2022-08-25T05:49:55.280Z,100333.89
2022-08-25T05:52:29.865Z,100335.13
2022-08-25T05:55:01.959Z,100333.16
2022-08-25T05:57:34.664Z,100331.85
2022-08-25T06:00:10.423Z,100332.27
2022-08-25T06:02:48.644Z,100331.50
2022-08-25T06:05:23.175Z,100332.16
2022-08-25T06:07:55.540Z,100329.11
2022-08-25T06:10:28.744Z,100327.10
2022-08-25T06:13:01.006Z,100325.70
2022-08-25T06:15:34.055Z,100324.20
2022-08-25T06:18:07.425Z,100324.95
2022-08-25T06:20:39.451Z,100326.38
2022-08-25T06:23:13.111Z,100330.59
2022-08-25T06:25:52.500Z,100334.48
2022-08-25T06:28:24.567Z,100336.68
2022-08-25T06:31:01.795Z,100342.36
2022-08-25T06:33:33.979Z,100342.40
2022-08-25T06:36:07.701Z,100344.23
2022-08-25T06:38:39.899Z,100345.66
2022-08-25T06:41:14.083Z,100349.41
2022-08-25T06:43:50.801Z,100349.23
2022-08-25T06:46:36.318Z,100348.77
2022-08-25T06:49:09.722Z,100345.91
2022-08-25T06:51:42.492Z,100346.89
2022-08-25T06:54:15.172Z,100342.17
2022-08-25T06:56:49.634Z,100347.91
2022-08-25T06:59:22.570Z,100345.02
2022-08-25T07:01:58.300Z,100353.48
2022-08-25T07:04:31.917Z,100355.66
2022-08-25T07:07:04.309Z,100351.66
2022-08-25T07:09:39.181Z,100356.66
2022-08-25T07:12:11.846Z,100359.41
2022-08-25T07:14:58.189Z,100357.20
2022-08-25T07:17:36.109Z,100362.02
2022-08-25T07:20:09.790Z,100364.56
2022-08-25T07:22:45.914Z,100366.77
2022-08-25T07:25:18.115Z,100369.84
2022-08-25T07:27:50.151Z,100369.06
2022-08-25T07:30:22.370Z,100371.92
2022-08-25T07:32:55.368Z,100369.74
2022-08-25T07:35:27.782Z,100368.33
2022-08-25T07:38:13.052Z,100370.67
2022-08-25T07:40:56.977Z,100371.61
2022-08-25T07:43:29.386Z,100372.83
2022-08-25T07:46:01.781Z,100372.08
2022-08-25T07:48:33.997Z,100369.23
2022-08-25T07:51:12.326Z,100370.06
2022-08-25T07:53:44.879Z,100372.44
2022-08-25T07:56:18.970Z,100374.34
2022-08-25T07:58:51.225Z,100374.92
2022-08-25T08:01:25.655Z,100380.91
2022-08-25T08:04:01.614Z,100381.16
2022-08-25T08:06:36.019Z,100379.67
2022-08-25T08:09:08.307Z,100377.38
2022-08-25T08:11:53.956Z,100377.69
2022-08-25T08:14:26.642Z,100380.16
2022-08-25T08:16:58.771Z,100377.95
2022-08-25T08:19:30.991Z,100375.55
2022-08-25T08:22:03.628Z,100373.21
2022-08-25T08:24:44.302Z,100369.46
2022-08-25T08:27:26.947Z,100370.21
2022-08-25T08:29:59.152Z,100371.27
2022-08-25T08:32:52.998Z,100371.41
2022-08-25T08:35:23.332Z,100371.20
2022-08-25T08:37:55.382Z,100375.02
2022-08-25T08:40:28.174Z,100367.29
2022-08-25T08:43:13.334Z,100372.28
2022-08-25T08:45:53.757Z,100370.09
2022-08-25T08:49:01.661Z,100365.02
2022-08-25T08:51:40.463Z,100364.39
2022-08-25T08:54:18.774Z,100364.52
2022-08-25T08:56:57.212Z,100359.61
2022-08-25T08:59:35.206Z,100363.14
2022-08-25T09:02:13.951Z,100358.50
2022-08-25T09:04:50.052Z,100355.35
2022-08-25T09:07:28.936Z,100355.90
2022-08-25T09:10:02.329Z,100357.00
2022-08-25T09:12:41.044Z,100356.30
2022-08-25T09:15:50.253Z,100348.40
2022-08-25T09:18:30.926Z,100356.14
2022-08-25T09:21:14.805Z,100353.59
2022-08-25T09:24:04.876Z,100348.04
2022-08-25T09:26:41.190Z,100354.14
2022-08-25T09:29:17.125Z,100354.29
2022-08-25T09:31:51.044Z,100351.02
2022-08-25T09:34:29.829Z,100355.70
2022-08-25T09:37:02.408Z,100350.75
2022-08-25T09:39:35.019Z,100346.42
2022-08-25T09:42:07.733Z,100346.42
2022-08-25T09:44:44.517Z,100347.98
2022-08-25T09:47:25.305Z,100344.05
2022-08-25T09:50:04.444Z,100342.14
2022-08-25T09:52:41.394Z,100332.51
2022-08-25T09:55:35.600Z,100326.68
2022-08-25T09:58:19.332Z,100324.99
2022-08-25T10:01:14.449Z,100321.72
2022-08-25T10:04:05.460Z,100319.65
2022-08-25T10:06:48.577Z,100317.78
2022-08-25T10:09:33.214Z,100313.83
2022-08-25T10:12:21.232Z,100312.05
2022-08-25T10:14:59.799Z,100310.43
2022-08-25T10:17:34.234Z,100312.27
2022-08-25T10:20:21.080Z,100298.01
2022-08-25T10:23:09.956Z,100293.98
2022-08-25T10:25:57.904Z,100293.91
2022-08-25T10:28:39.943Z,100292.63
2022-08-25T10:31:22.011Z,100290.29
2022-08-25T10:34:08.064Z,100287.48
2022-08-25T10:36:50.981Z,100290.41
2022-08-25T10:39:40.631Z,100286.77
2022-08-25T10:42:30.263Z,100285.06
2022-08-25T10:45:34.700Z,100285.09
2022-08-25T10:48:19.737Z,100275.70
2022-08-25T10:51:01.044Z,100268.39
2022-08-25T10:53:47.359Z,100268.49
2022-08-25T10:56:25.918Z,100263.70
2022-08-25T10:59:27.520Z,100259.60
2022-08-25T11:02:29.495Z,100257.89
2022-08-25T11:05:07.945Z,100253.48
2022-08-25T11:07:44.514Z,100255.34
2022-08-25T11:10:20.328Z,100248.88
2022-08-25T11:12:55.638Z,100238.63
2022-08-25T11:15:31.115Z,100233.23
2022-08-25T11:18:14.667Z,100238.65
2022-08-25T11:20:53.151Z,100241.88
2022-08-25T11:23:29.757Z,100238.98
2022-08-25T11:26:11.214Z,100238.04
2022-08-25T11:28:55.384Z,100236.71
2022-08-25T11:31:30.081Z,100231.41
2022-08-25T11:34:02.433Z,100230.58
2022-08-25T11:36:37.867Z,100228.23
2022-08-25T11:39:23.089Z,100230.79
2022-08-25T11:42:09.813Z,100239.27
2022-08-25T11:44:53.801Z,100231.39
2022-08-25T11:47:51.915Z,100235.15
2022-08-25T11:50:33.288Z,100233.80
2022-08-25T11:53:26.712Z,100233.86
2022-08-25T11:56:04.623Z,100227.98
2022-08-25T11:58:52.114Z,100224.11
2022-08-25T12:02:13.148Z,100224.31
2022-08-25T12:04:46.903Z,100226.80
2022-08-25T12:07:33.565Z,100230.11
2022-08-25T12:10:24.246Z,100216.71
2022-08-25T12:13:48.473Z,100225.27
2022-08-25T12:16:44.683Z,100225.52
2022-08-25T12:19:49.728Z,100227.42
2022-08-25T12:22:55.445Z,100230.10
2022-08-25T12:25:43.585Z,100226.38
2022-08-25T12:28:40.543Z,100222.73
2022-08-25T12:31:24.550Z,100219.89
2022-08-25T12:34:12.494Z,100214.09
2022-08-25T12:36:59.455Z,100218.64
2022-08-25T12:39:34.220Z,100216.20
2022-08-25T12:42:26.139Z,100212.20
2022-08-25T12:45:38.854Z,100208.11
2022-08-25T12:48:43.991Z,100205.34
2022-08-25T12:51:21.218Z,100204.08
2022-08-25T12:53:57.183Z,100202.65
2022-08-25T12:56:39.117Z,100199.11
2022-08-25T12:59:18.616Z,100196.05
2022-08-25T13:02:09.349Z,100200.55
2022-08-25T13:05:14.474Z,100205.98
2022-08-25T13:08:17.159Z,100197.08
2022-08-25T13:10:55.045Z,100194.77
2022-08-25T13:13:47.907Z,100185.66
2022-08-25T13:16:27.072Z,100187.46
2022-08-25T13:19:05.693Z,100187.88
2022-08-25T13:21:41.845Z,100192.02
2022-08-25T13:24:20.723Z,100182.85
2022-08-25T13:26:56.851Z,100186.42
2022-08-25T13:29:28.446Z,100179.38
2022-08-25T13:32:12.693Z,100179.19
2022-08-25T13:34:46.873Z,100178.30
2022-08-25T13:37:29.578Z,100184.38
2022-08-25T13:40:17.684Z,100176.95
2022-08-25T13:42:55.912Z,100177.69
2022-08-25T13:45:32.035Z,100179.59
2022-08-25T13:48:08.013Z,100174.99
2022-08-25T13:51:07.177Z,100175.90
2022-08-25T13:53:41.708Z,100179.04
2022-08-25T13:56:24.289Z,100169.56
2022-08-25T13:59:01.119Z,100179.20
2022-08-25T14:01:49.651Z,100173.09
2022-08-25T14:04:31.555Z,100171.04
2022-08-25T14:07:34.066Z,100172.62
2022-08-25T14:10:10.089Z,100167.00
2022-08-25T14:12:46.481Z,100168.33
2022-08-25T14:15:35.162Z,100165.64
2022-08-25T14:18:14.820Z,100161.34
2022-08-25T14:20:53.764Z,100157.30
2022-08-25T14:23:29.876Z,100160.09
2022-08-25T14:26:04.551Z,100153.85
2022-08-25T14:28:39.568Z,100149.48
2022-08-25T14:31:16.642Z,100153.86
2022-08-25T14:33:53.781Z,100151.29
2022-08-25T14:36:26.415Z,100153.27
2022-08-25T14:38:59.408Z,100154.45
2022-08-25T14:41:35.008Z,100150.80
2022-08-25T14:44:09.132Z,100154.86
2022-08-25T14:46:46.941Z,100156.84
2022-08-25T14:49:24.969Z,100154.17
2022-08-25T14:51:57.731Z,100154.23
2022-08-25T14:54:32.734Z,100151.20
2022-08-25T14:57:08.441Z,100150.87
2022-08-25T14:59:43.321Z,100145.63
2022-08-25T15:02:20.008Z,100144.02
2022-08-25T15:04:55.642Z,100151.71
2022-08-25T15:07:46.139Z,100152.65
2022-08-25T15:10:30.419Z,100150.87
2022-08-25T15:13:02.455Z,100154.29
2022-08-25T15:15:52.465Z,100151.61
2022-08-25T15:18:25.950Z,100152.61
2022-08-25T15:20:58.412Z,100152.92
2022-08-25T15:23:30.568Z,100148.55
2022-08-25T15:26:02.913Z,100151.39
2022-08-25T15:28:38.682Z,100151.08
2022-08-25T15:31:10.866Z,100148.96
2022-08-25T15:33:42.997Z,100147.91
2022-08-25T15:36:20.721Z,100145.73
2022-08-25T15:38:53.100Z,100145.45
2022-08-25T15:41:27.919Z,100146.54
2022-08-25T15:44:00.843Z,100145.46
2022-08-25T15:46:33.872Z,100146.19
2022-08-25T15:49:07.832Z,100145.17
2022-08-25T15:51:42.119Z,100142.77
2022-08-25T15:54:14.508Z,100145.81
2022-08-25T15:56:47.398Z,100140.03
2022-08-25T15:59:21.633Z,100137.00
2022-08-25T16:01:54.840Z,100138.23
2022-08-25T16:04:29.323Z,100136.55
2022-08-25T16:07:02.774Z,100136.08
2022-08-25T16:09:36.593Z,100140.05
2022-08-25T16:12:10.043Z,100144.23
2022-08-25T16:14:43.150Z,100144.83
2022-08-25T16:17:15.431Z,100146.13
2022-08-25T16:19:48.383Z,100143.10
2022-08-25T16:22:20.590Z,100143.94
2022-08-25T16:24:52.719Z,100138.86
2022-08-25T16:27:25.371Z,100136.40
2022-08-25T16:29:57.561Z,100139.65
2022-08-25T16:32:29.827Z,100138.81
2022-08-25T16:35:01.932Z,100137.33
2022-08-25T16:37:35.508Z,100138.80
2022-08-25T16:40:10.408Z,100132.42
2022-08-25T16:42:42.758Z,100132.48
2022-08-25T16:45:15.137Z,100133.27
2022-08-25T16:47:47.577Z,100134.30
2022-08-25T16:50:20.428Z,100136.93
2022-08-25T16:53:09.921Z,100139.48
2022-08-25T16:55:42.056Z,100138.06
2022-08-25T16:58:14.159Z,100140.04
2022-08-25T17:00:46.460Z,100144.15
2022-08-25T17:03:20.300Z,100145.36
2022-08-25T17:05:53.333Z,100148.44
2022-08-25T17:08:32.248Z,100148.48
2022-08-25T17:11:10.703Z,100147.49
2022-08-25T17:13:45.416Z,100150.46
2022-08-25T17:16:19.195Z,100149.26
2022-08-25T17:18:52.554Z,100146.83
2022-08-25T17:21:28.016Z,100147.55
2022-08-25T17:24:00.833Z,100141.71
2022-08-25T17:26:41.183Z,100143.52
2022-08-25T17:29:17.350Z,100141.86
2022-08-25T17:31:51.264Z,100147.50
2022-08-25T17:34:23.873Z,100148.08
2022-08-25T17:36:56.463Z,100152.33
2022-08-25T17:39:29.982Z,100150.89
2022-08-25T17:42:02.222Z,100150.81
2022-08-25T17:44:34.314Z,100152.97
2022-08-25T17:47:10.133Z,100153.88
2022-08-25T17:49:42.978Z,100160.73
2022-08-25T17:52:17.388Z,100165.48
2022-08-25T17:54:49.479Z,100167.05
2022-08-25T17:57:24.567Z,100169.75
2022-08-25T17:59:57.338Z,100169.16
2022-08-25T18:02:30.458Z,100167.02
2022-08-25T18:05:04.972Z,100174.91
2022-08-25T18:07:38.086Z,100177.02
2022-08-25T18:10:12.230Z,100174.95
2022-08-25T18:12:44.761Z,100173.30
2022-08-25T18:15:17.782Z,100177.11
2022-08-25T18:17:50.114Z,100173.65
2022-08-25T18:20:22.204Z,100174.50
2022-08-25T18:22:57.697Z,100177.52
2022-08-25T18:25:29.803Z,100176.10
2022-08-25T18:28:02.640Z,100175.73
2022-08-25T18:30:34.813Z,100173.98
2022-08-25T18:33:07.070Z,100173.15
2022-08-25T18:35:39.117Z,100177.20
2022-08-25T18:38:28.752Z,100182.91
2022-08-25T18:41:06.441Z,100181.70
2022-08-25T18:43:39.168Z,100185.33
2022-08-25T18:46:12.467Z,100186.02
2022-08-25T18:48:45.735Z,100185.40
2022-08-25T18:51:18.301Z,100186.23
2022-08-25T18:54:00.911Z,100186.46
2022-08-25T18:56:34.798Z,100192.20
2022-08-25T18:59:09.018Z,100189.60
2022-08-25T19:01:41.731Z,100194.60
2022-08-25T19:04:15.331Z,100193.84
2022-08-25T19:06:47.579Z,100192.48
2022-08-25T19:09:23.905Z,100193.04
2022-08-25T19:11:56.057Z,100188.77
2022-08-25T19:14:29.243Z,100186.79
2022-08-25T19:17:01.814Z,100189.00
2022-08-25T19:19:34.008Z,100191.04
2022-08-25T19:22:08.520Z,100192.18
2022-08-25T19:24:49.013Z,100187.35
2022-08-25T19:27:21.377Z,100187.09
2022-08-25T19:29:53.756Z,100187.29
2022-08-25T19:32:25.859Z,100187.64
2022-08-25T19:34:58.321Z,100185.48
2022-08-25T19:37:31.421Z,100183.13
2022-08-25T19:40:06.392Z,100180.92
2022-08-25T19:42:38.913Z,100176.92
2022-08-25T19:45:15.396Z,100174.55
2022-08-25T19:47:47.529Z,100175.65
2022-08-25T19:50:21.341Z,100176.18
2022-08-25T19:52:54.142Z,100173.16
2022-08-25T19:55:26.684Z,100172.99
2022-08-25T19:57:59.296Z,100171.02
2022-08-25T20:00:35.712Z,100174.96
2022-08-25T20:03:10.184Z,100172.59
2022-08-25T20:05:42.507Z,100176.41
2022-08-25T20:08:14.718Z,100181.33
2022-08-25T20:10:47.680Z,100180.11
2022-08-25T20:13:19.860Z,100184.54
2022-08-25T20:15:52.154Z,100183.41
2022-08-25T20:18:30.059Z,100182.06
2022-08-25T20:21:02.575Z,100180.91
2022-08-25T20:23:52.943Z,100176.59
2022-08-25T20:26:26.814Z,100176.80
2022-08-25T20:28:59.750Z,100177.66
2022-08-25T20:31:32.358Z,100176.61
2022-08-25T20:34:05.006Z,100172.80
2022-08-25T20:36:39.986Z,100176.98
2022-08-25T20:39:22.991Z,100175.27
2022-08-25T20:41:55.052Z,100172.91
2022-08-25T20:44:33.667Z,100173.05
2022-08-25T20:47:10.363Z,100173.67
2022-08-25T20:49:43.969Z,100173.09
2022-08-25T20:52:16.752Z,100176.46
2022-08-25T20:54:51.233Z,100176.45
2022-08-25T20:57:26.241Z,100176.27
2022-08-25T21:00:01.190Z,100178.08
2022-08-25T21:02:33.516Z,100174.04
2022-08-25T21:05:08.885Z,100174.52
2022-08-25T21:07:41.617Z,100172.50
2022-08-25T21:10:14.730Z,100171.09
2022-08-25T21:12:49.146Z,100169.45
2022-08-25T21:15:25.581Z,100173.23
2022-08-25T21:17:58.223Z,100173.05
2022-08-25T21:20:31.850Z,100165.30
2022-08-25T21:23:04.020Z,100163.88
2022-08-25T21:25:43.328Z,100166.02
2022-08-25T21:28:15.653Z,100170.83
2022-08-25T21:30:48.192Z,100172.98
2022-08-25T21:33:20.423Z,100172.65
2022-08-25T21:35:58.316Z,100175.62
2022-08-25T21:38:30.566Z,100176.67
2022-08-25T21:41:08.553Z,100177.27
2022-08-25T21:43:41.349Z,100175.45
2022-08-25T21:46:19.224Z,100173.70
2022-08-25T21:48:51.917Z,100174.92
2022-08-25T21:51:26.644Z,100174.40
2022-08-25T21:54:10.206Z,100178.05
2022-08-25T21:56:45.237Z,100172.73
2022-08-25T21:59:20.144Z,100168.27
2022-08-25T22:01:56.305Z,100172.52
2022-08-25T22:04:29.721Z,100167.34
2022-08-25T22:07:02.899Z,100168.05
2022-08-25T22:09:35.933Z,100168.91
2022-08-25T22:12:09.778Z,100170.28
2022-08-25T22:14:42.273Z,100166.51
2022-08-25T22:17:16.809Z,100164.79
2022-08-25T22:19:49.420Z,100164.95
2022-08-25T22:22:26.674Z,100161.89
2022-08-25T22:24:58.778Z,100159.27
2022-08-25T22:27:31.845Z,100155.83
2022-08-25T22:30:04.002Z,100154.72
2022-08-25T22:32:37.563Z,100149.88
2022-08-25T22:35:11.562Z,100149.15
2022-08-25T22:37:45.106Z,100144.45
2022-08-25T22:40:17.691Z,100139.91
2022-08-25T22:42:50.621Z,100137.42
2022-08-25T22:45:22.907Z,100133.81
2022-08-25T22:47:56.026Z,100132.83
2022-08-25T22:50:28.657Z,100129.30
2022-08-25T22:53:00.637Z,100132.02
2022-08-25T22:55:32.902Z,100131.61
2022-08-25T22:58:05.239Z,100135.20
2022-08-25T23:00:39.402Z,100130.64
2022-08-25T23:03:11.609Z,100128.27
2022-08-25T23:05:43.726Z,100128.58
2022-08-25T23:08:15.986Z,100128.91
2022-08-25T23:11:09.973Z,100124.47
2022-08-25T23:13:42.853Z,100121.91
2022-08-25T23:16:15.471Z,100122.45
2022-08-25T23:18:47.822Z,100123.13
2022-08-25T23:21:41.019Z,100118.93
2022-08-25T23:24:29.090Z,100125.86
2022-08-25T23:27:04.791Z,100121.70
2022-08-25T23:29:40.077Z,100120.16
2022-08-25T23:32:14.492Z,100120.16
2022-08-25T23:34:47.724Z,100122.93
2022-08-25T23:37:20.745Z,100126.92
2022-08-25T23:39:52.962Z,100129.95
2022-08-25T23:42:25.013Z,100127.49
2022-08-25T23:44:57.328Z,100124.42
2022-08-25T23:47:30.130Z,100127.34
2022-08-25T23:50:03.214Z,100122.73
2022-08-25T23:52:36.303Z,100119.52
2022-08-25T23:55:09.607Z,100120.52
2022-08-25T23:57:42.400Z,100115.59
